Time;durP1;ratioP1;P1;durP2;ratioP2;P2;SDS_P1;SDS_P2;PMS_P1;PMS_P2;Temp;Humidity;BMP_temperature;BMP_pressure;BME280_temperature;BME280_humidity;BME280_pressure;Samples;Min_cycle;Max_cycle;Signal;HPM_P1;HPM_P2
2023/05/15 06:00:53;;;;;;;26.65;18.08;;;;;;;15.24;100.00;99818.09;5601388;31;249181;-56
2023/05/15 06:03:56;;;;;;;20.83;16.73;;;;;;;15.24;100.00;99818.09;5583981;31;33508;-57
2023/05/15 06:06:59;;;;;;;22.75;16.90;;;;;;;14.71;100.00;99809.38;5583646;31;33570;-56
2023/05/15 06:10:02;;;;;;;17.95;14.23;;;;;;;14.79;100.00;99797.75;5573185;32;34212;-57
2023/05/15 06:13:05;;;;;;;16.55;13.60;;;;;;;14.84;100.00;99807.59;5564091;32;33557;-56
2023/05/15 06:16:07;;;;;;;16.12;12.93;;;;;;;14.95;100.00;99814.22;5563943;32;33594;-56
2023/05/15 06:19:10;;;;;;;16.00;13.57;;;;;;;15.04;100.00;99822.31;5563733;32;33448;-57
2023/05/15 06:22:13;;;;;;;18.25;14.40;;;;;;;15.09;100.00;99824.03;5564139;32;33455;-57
2023/05/15 06:25:15;;;;;;;19.30;13.57;;;;;;;15.07;100.00;99828.97;5564048;32;34322;-57
2023/05/15 06:28:18;;;;;;;18.20;13.07;;;;;;;15.29;100.00;99828.69;5564008;32;34148;-56
2023/05/15 06:31:20;;;;;;;16.33;12.82;;;;;;;15.45;100.00;99842.44;5564176;32;34229;-56
2023/05/15 06:34:22;;;;;;;14.40;12.77;;;;;;;15.35;100.00;99832.78;5564028;32;33669;-56
2023/05/15 06:37:25;;;;;;;14.07;12.07;;;;;;;15.48;100.00;99831.78;5563871;32;34181;-56
2023/05/15 06:40:27;;;;;;;15.88;13.35;;;;;;;15.46;100.00;99823.22;5563765;32;33715;-56
2023/05/15 06:43:29;;;;;;;14.68;12.57;;;;;;;15.62;100.00;99814.53;5563870;32;34268;-57
2023/05/15 06:46:32;;;;;;;14.27;11.63;;;;;;;15.51;100.00;99804.13;5563795;32;33621;-57
2023/05/15 06:49:34;;;;;;;18.42;12.65;;;;;;;15.60;100.00;99798.66;5563987;32;33687;-56
2023/05/15 06:52:36;;;;;;;15.30;12.55;;;;;;;15.89;100.00;99788.94;5562930;32;33534;-57
2023/05/15 06:55:39;;;;;;;13.27;11.50;;;;;;;15.79;100.00;99790.13;5563423;32;33637;-56
2023/05/15 06:58:41;;;;;;;15.45;11.07;;;;;;;15.75;100.00;99791.91;5563609;32;34361;-56
2023/05/15 07:01:44;;;;;;;14.55;12.15;;;;;;;15.90;100.00;99790.53;5563363;32;33792;-56
2023/05/15 07:04:47;;;;;;;14.50;12.25;;;;;;;15.91;100.00;99792.12;5563749;32;33721;-56
2023/05/15 07:07:49;;;;;;;13.50;10.75;;;;;;;15.84;100.00;99797.28;5563680;32;34367;-56
2023/05/15 07:10:52;;;;;;;13.45;11.05;;;;;;;16.03;100.00;99810.34;5556779;32;33576;-56
2023/05/15 07:13:56;;;;;;;10.98;9.50;;;;;;;16.17;100.00;99802.72;5550737;32;33564;-57
2023/05/15 07:16:58;;;;;;;10.18;9.07;;;;;;;16.34;100.00;99807.19;5550604;32;34219;-56
2023/05/15 07:20:00;;;;;;;8.98;8.00;;;;;;;16.52;100.00;99808.59;5550695;32;33618;-56
2023/05/15 07:23:04;;;;;;;11.48;8.60;;;;;;;16.52;100.00;99816.72;5550687;32;34316;-57
2023/05/15 07:26:06;;;;;;;11.95;10.73;;;;;;;16.37;100.00;99826.25;5550898;32;34256;-56
2023/05/15 07:29:13;;;;;;;13.73;10.45;;;;;;;16.54;100.00;99829.91;5550651;32;34379;-57
2023/05/15 07:32:16;;;;;;;14.93;11.25;;;;;;;16.33;100.00;99843.50;5550773;32;34403;-56
2023/05/15 07:35:18;;;;;;;13.10;11.00;;;;;;;16.26;100.00;99846.72;5549234;32;33549;-59
2023/05/15 07:38:21;;;;;;;13.75;11.15;;;;;;;16.11;100.00;99833.78;5550634;32;34314;-56
2023/05/15 07:41:23;;;;;;;13.95;11.50;;;;;;;16.09;100.00;99822.50;5550464;32;33723;-57
2023/05/15 07:44:25;;;;;;;13.57;11.05;;;;;;;16.01;100.00;99812.56;5550420;32;34329;-57
2023/05/15 07:47:28;;;;;;;17.37;14.07;;;;;;;15.98;100.00;99805.91;5550474;32;33559;-56
2023/05/15 07:50:30;;;;;;;17.35;14.55;;;;;;;16.03;100.00;99818.44;5550334;32;33818;-56
2023/05/15 07:53:33;;;;;;;17.70;14.40;;;;;;;16.00;100.00;99805.59;5549957;32;33645;-56
2023/05/15 07:56:36;;;;;;;17.37;15.35;;;;;;;16.01;100.00;99801.75;5550219;32;33546;-56
2023/05/15 07:59:39;;;;;;;16.27;14.50;;;;;;;16.05;100.00;99814.25;5565372;32;33560;-57
2023/05/15 08:02:44;;;;;;;17.20;15.35;;;;;;;16.14;100.00;99816.91;5568295;32;34327;-57
2023/05/15 08:05:47;;;;;;;18.67;14.77;;;;;;;16.36;100.00;99837.41;5568819;32;32096;-57
2023/05/15 08:08:49;;;;;;;17.05;14.55;;;;;;;16.27;100.00;99845.59;5569501;31;34298;-56
2023/05/15 08:11:55;;;;;;;16.35;14.10;;;;;;;16.18;100.00;99837.53;5569571;32;33646;-56
2023/05/15 08:14:57;;;;;;;16.37;13.20;;;;;;;16.28;100.00;99840.97;5568589;32;33920;-57
2023/05/15 08:17:59;;;;;;;16.87;13.20;;;;;;;16.43;100.00;99838.44;5569356;32;33639;-56
2023/05/15 08:21:02;;;;;;;14.63;11.25;;;;;;;16.42;100.00;99842.28;5568788;32;34338;-56
2023/05/15 08:24:06;;;;;;;14.35;12.35;;;;;;;16.34;100.00;99834.25;5568029;32;33671;-56
2023/05/15 08:27:08;;;;;;;14.07;12.02;;;;;;;16.31;100.00;99840.31;5566936;32;33468;-56
2023/05/15 08:30:11;;;;;;;15.63;11.68;;;;;;;16.29;100.00;99842.53;5566960;32;33783;-56
2023/05/15 08:33:13;;;;;;;11.75;10.55;;;;;;;16.30;100.00;99844.94;5568074;32;33615;-56
2023/05/15 08:36:18;;;;;;;12.00;10.57;;;;;;;16.34;100.00;99843.13;5568441;32;33708;-56
2023/05/15 08:39:21;;;;;;;12.05;10.15;;;;;;;16.41;100.00;99840.69;5562633;32;33819;-56
2023/05/15 08:42:31;;;;;;;7.82;6.25;;;;;;;16.59;100.00;99845.97;5568610;32;33627;-56
2023/05/15 08:45:35;;;;;;;7.47;5.75;;;;;;;16.61;100.00;99832.87;5568419;32;33589;-57
2023/05/15 08:48:40;;;;;;;6.37;5.43;;;;;;;16.73;100.00;99826.72;5568351;32;34296;-56
2023/05/15 08:51:43;;;;;;;9.13;5.53;;;;;;;16.82;100.00;99825.53;5569075;32;33582;-57
2023/05/15 08:54:47;;;;;;;5.78;5.15;;;;;;;16.88;100.00;99823.38;5569321;32;34242;-56
2023/05/15 08:57:50;;;;;;;7.90;6.30;;;;;;;16.79;97.29;99818.06;5568401;32;34369;-57
2023/05/15 09:00:53;;;;;;;9.73;6.65;;;;;;;16.78;100.00;99816.47;5562257;32;33608;-56
2023/05/15 09:03:55;;;;;;;6.37;4.90;;;;;;;16.71;99.17;99818.13;5568636;32;34262;-56
2023/05/15 09:07:02;;;;;;;5.93;5.25;;;;;;;16.77;96.09;99816.81;5569222;32;35186;-56
2023/05/15 09:10:05;;;;;;;6.18;5.07;;;;;;;16.78;96.09;99830.00;5568764;32;34246;-56
2023/05/15 09:13:08;;;;;;;6.82;5.20;;;;;;;16.89;98.49;99842.00;5568620;32;34350;-56
2023/05/15 09:16:10;;;;;;;5.68;5.07;;;;;;;16.96;100.00;99846.88;5568714;32;33665;-57
2023/05/15 09:19:14;;;;;;;5.47;4.87;;;;;;;16.94;97.71;99842.91;5568740;32;33713;-57
2023/05/15 09:22:23;;;;;;;6.05;5.00;;;;;;;17.02;99.80;99852.84;5568795;32;33949;-56
2023/05/15 09:25:43;;;;;;;8.10;5.20;;;;;;;17.00;100.00;99858.59;5568623;32;34013;-57
2023/05/15 09:28:46;;;;;;;5.35;4.72;;;;;;;17.09;100.00;99859.31;5568846;32;33544;-57
2023/05/15 09:31:48;;;;;;;6.55;5.10;;;;;;;17.27;100.00;99861.81;5568562;32;33671;-56
2023/05/15 09:34:50;;;;;;;6.32;4.72;;;;;;;17.36;97.75;99871.41;5568514;32;33587;-57
2023/05/15 09:37:58;;;;;;;5.50;3.85;;;;;;;17.26;94.73;99877.25;5568425;32;34340;-57
2023/05/15 09:41:02;;;;;;;6.95;4.20;;;;;;;17.13;94.20;99876.47;5568382;32;33678;-56
2023/05/15 09:44:16;;;;;;;5.82;4.12;;;;;;;17.20;97.73;99875.12;5561030;32;33760;-57
2023/05/15 09:47:22;;;;;;;4.22;3.60;;;;;;;17.24;98.36;99874.09;5568506;32;34366;-56
2023/05/15 09:50:38;;;;;;;4.95;3.58;;;;;;;17.20;93.15;99883.25;5568016;32;33542;-57
2023/05/15 09:53:40;;;;;;;5.45;4.10;;;;;;;17.25;93.19;99872.97;5559166;32;33994;-56
2023/05/15 09:56:46;;;;;;;6.07;4.20;;;;;;;17.33;93.46;99871.28;5566229;32;33587;-56
2023/05/15 09:59:49;;;;;;;;;;;;;;;17.43;95.82;99870.84;5559787;32;33670;-56
2023/05/15 10:02:51;;;;;;;5.20;3.95;;;;;;;17.58;96.93;99875.59;5564856;32;34000;-57
2023/05/15 10:06:03;;;;;;;4.93;4.10;;;;;;;17.64;94.34;99876.12;5566762;32;33686;-57
2023/05/15 10:09:07;;;;;;;4.35;3.62;;;;;;;17.57;91.59;99878.63;5567947;32;33572;-57
2023/05/15 10:12:09;;;;;;;6.65;3.97;;;;;;;17.47;87.91;99876.38;5566938;32;33655;-57
2023/05/15 10:15:13;;;;;;;5.60;3.62;;;;;;;17.50;91.29;99871.06;5566798;32;33602;-57
2023/05/15 10:18:20;;;;;;;4.35;2.85;;;;;;;17.65;97.23;99876.94;5567816;32;33289;-57
2023/05/15 10:21:24;;;;;;;2.62;2.37;;;;;;;17.60;87.99;99881.44;5567922;32;34264;-57
2023/05/15 10:24:29;;;;;;;3.10;2.80;;;;;;;17.52;87.86;99876.94;5565867;32;33632;-57
2023/05/15 10:27:34;;;;;;;3.10;2.60;;;;;;;17.49;91.90;99874.91;5567184;32;33605;-57
2023/05/15 10:30:37;;;;;;;2.87;2.55;;;;;;;17.46;87.26;99881.00;5567730;32;33664;-57
2023/05/15 10:33:40;;;;;;;2.50;2.30;;;;;;;17.57;89.59;99879.41;5567595;32;33609;-57
2023/05/15 10:36:44;;;;;;;2.72;2.00;;;;;;;17.68;88.42;99874.34;5567596;32;33562;-57
2023/05/15 10:39:46;;;;;;;4.25;2.00;;;;;;;17.75;85.01;99879.22;5567219;32;33696;-57
2023/05/15 10:42:49;;;;;;;2.50;2.00;;;;;;;17.80;84.46;99876.28;5550959;32;33705;-57
2023/05/15 10:45:52;;;;;;;2.40;2.15;;;;;;;17.96;88.09;99882.59;5548782;32;33684;-57
2023/05/15 10:48:54;;;;;;;2.22;2.03;;;;;;;18.04;90.75;99889.78;5554580;32;33819;-57
2023/05/15 10:51:59;;;;;;;1.98;1.85;;;;;;;18.10;86.27;99886.84;5569175;32;33839;-57
2023/05/15 10:55:05;;;;;;;3.95;2.05;;;;;;;18.01;83.97;99886.97;5570460;32;33540;-57
2023/05/15 10:58:08;;;;;;;2.42;1.83;;;;;;;18.05;86.61;99879.75;5569772;32;33556;-57
2023/05/15 11:01:27;;;;;;;2.53;2.20;;;;;;;18.11;90.32;99872.94;5570190;32;33662;-55
2023/05/15 11:04:32;;;;;;;3.62;2.05;;;;;;;18.19;85.63;99882.09;5569082;32;33173;-54
2023/05/15 11:07:34;;;;;;;2.33;2.08;;;;;;;18.24;85.97;99877.19;5569056;32;33828;-55
2023/05/15 11:10:37;;;;;;;2.35;2.15;;;;;;;18.24;81.18;99885.34;5569930;32;34381;-54
